createdAt,value
2022-08-19T00:00:16.793Z,78.80
2022-08-19T00:01:17.498Z,78.70
2022-08-19T00:02:17.315Z,78.30
2022-08-19T00:03:15.330Z,78.60
2022-08-19T00:04:13.597Z,78.80
2022-08-19T00:05:16.340Z,78.70
2022-08-19T00:06:17.224Z,78.80
2022-08-19T00:07:18.117Z,79.20
2022-08-19T00:08:16.348Z,79.10
2022-08-19T00:09:14.955Z,79.10
2022-08-19T00:10:18.489Z,79.40
2022-08-19T00:11:25.228Z,79.40
2022-08-19T00:12:13.844Z,79.20
2022-08-19T00:13:14.821Z,79.00
2022-08-19T00:14:17.973Z,78.50
2022-08-19T00:15:16.114Z,78.10
2022-08-19T00:16:17.797Z,78.40
2022-08-19T00:17:16.703Z,78.40
2022-08-19T00:18:15.460Z,78.20
2022-08-19T00:19:16.927Z,78.10
2022-08-19T00:20:14.524Z,78.00
2022-08-19T00:21:17.900Z,78.90
2022-08-19T00:22:12.829Z,79.00
2022-08-19T00:23:13.653Z,78.90
2022-08-19T00:24:14.422Z,79.80
2022-08-19T00:25:13.324Z,79.70
2022-08-19T00:26:18.341Z,80.10
2022-08-19T00:27:26.452Z,80.60
2022-08-19T00:28:14.286Z,81.20
2022-08-19T00:29:16.250Z,80.80
2022-08-19T00:30:18.759Z,80.80
2022-08-19T00:31:18.026Z,81.10
2022-08-19T00:32:13.402Z,81.50
2022-08-19T00:33:15.766Z,81.10
2022-08-19T00:34:15.428Z,80.90
2022-08-19T00:35:17.930Z,80.60
2022-08-19T00:36:12.780Z,80.40
2022-08-19T00:37:15.736Z,81.00
2022-08-19T00:38:17.174Z,81.20
2022-08-19T00:39:16.686Z,81.60
2022-08-19T00:40:18.016Z,81.80
2022-08-19T00:41:12.917Z,81.50
2022-08-19T00:42:15.067Z,81.80
2022-08-19T00:43:17.645Z,82.00
2022-08-19T00:44:16.492Z,82.40
2022-08-19T00:45:16.437Z,82.60
2022-08-19T00:46:16.596Z,82.60
2022-08-19T00:47:19.130Z,82.60
2022-08-19T00:48:14.713Z,82.30
2022-08-19T00:49:16.322Z,81.80
2022-08-19T00:50:16.151Z,81.50
2022-08-19T00:51:16.546Z,81.50
2022-08-19T00:52:13.395Z,81.50
2022-08-19T00:53:17.928Z,81.30
2022-08-19T00:54:17.616Z,81.50
2022-08-19T00:55:16.677Z,81.30
2022-08-19T00:56:15.690Z,81.70
2022-08-19T00:57:15.232Z,81.50
2022-08-19T00:58:17.363Z,81.30
2022-08-19T00:59:14.873Z,80.90
2022-08-19T01:00:14.993Z,81.20
2022-08-19T01:01:13.841Z,81.10
2022-08-19T01:02:15.753Z,81.40
2022-08-19T01:03:16.719Z,81.00
2022-08-19T01:04:17.937Z,81.00
2022-08-19T01:05:18.195Z,81.70
2022-08-19T01:06:15.894Z,81.60
2022-08-19T01:07:17.313Z,81.90
2022-08-19T01:08:17.437Z,81.50
2022-08-19T01:09:17.320Z,81.30
2022-08-19T01:10:13.193Z,81.20
2022-08-19T01:11:16.762Z,80.80
2022-08-19T01:12:16.671Z,81.10
2022-08-19T01:13:15.326Z,81.30
2022-08-19T01:14:14.395Z,81.80
2022-08-19T01:15:13.235Z,82.30
2022-08-19T01:16:14.871Z,82.50
2022-08-19T01:17:14.613Z,82.40
2022-08-19T01:18:13.514Z,82.40
2022-08-19T01:19:13.565Z,82.50
2022-08-19T01:20:18.129Z,82.70
2022-08-19T01:21:14.539Z,83.10
2022-08-19T01:22:15.463Z,83.30
2022-08-19T01:23:16.179Z,83.50
2022-08-19T01:24:16.371Z,83.70
2022-08-19T01:25:15.781Z,83.80
2022-08-19T01:26:14.442Z,84.00
2022-08-19T01:27:15.304Z,83.80
2022-08-19T01:28:16.224Z,83.90
2022-08-19T01:29:13.175Z,84.60
2022-08-19T01:30:15.333Z,85.20
2022-08-19T01:31:27.117Z,85.60
2022-08-19T01:32:32.291Z,85.20
2022-08-19T01:33:13.245Z,85.10
2022-08-19T01:34:13.090Z,85.00
2022-08-19T01:35:13.035Z,85.10
2022-08-19T01:36:14.137Z,85.80
2022-08-19T01:37:16.647Z,85.60
2022-08-19T01:38:14.571Z,85.80
2022-08-19T01:39:13.446Z,85.60
2022-08-19T01:40:15.266Z,85.20
2022-08-19T01:41:17.066Z,85.00
2022-08-19T01:42:12.979Z,84.60
2022-08-19T01:43:15.898Z,84.30
2022-08-19T01:44:18.063Z,84.40
2022-08-19T01:45:15.917Z,84.90
2022-08-19T01:46:14.297Z,85.10
2022-08-19T01:47:16.834Z,85.20
2022-08-19T01:48:18.040Z,85.00
2022-08-19T01:49:15.847Z,85.10
2022-08-19T01:50:20.016Z,84.50
2022-08-19T01:51:16.765Z,84.20
2022-08-19T01:52:16.875Z,84.30
2022-08-19T01:53:14.220Z,84.70
2022-08-19T01:54:27.216Z,84.60
2022-08-19T01:55:15.185Z,84.30
2022-08-19T01:56:17.674Z,84.80
2022-08-19T01:57:18.333Z,84.70
2022-08-19T01:58:15.350Z,84.30
2022-08-19T01:59:16.512Z,83.90
2022-08-19T02:00:16.448Z,83.90
2022-08-19T02:01:15.245Z,84.30
2022-08-19T02:02:18.837Z,84.60
2022-08-19T02:03:15.401Z,84.60
2022-08-19T02:04:16.507Z,84.80
2022-08-19T02:05:13.815Z,84.90
2022-08-19T02:06:13.647Z,85.20
2022-08-19T02:07:13.760Z,85.90
2022-08-19T02:08:13.778Z,86.20
2022-08-19T02:09:16.271Z,86.30
2022-08-19T02:10:16.681Z,86.20
2022-08-19T02:11:15.774Z,85.90
2022-08-19T02:12:15.213Z,85.60
2022-08-19T02:13:14.810Z,85.30
2022-08-19T02:14:17.180Z,85.40
2022-08-19T02:15:14.701Z,85.40
2022-08-19T02:16:14.742Z,85.30
2022-08-19T02:17:14.873Z,85.00
2022-08-19T02:18:13.133Z,84.90
2022-08-19T02:19:16.061Z,84.90
2022-08-19T02:20:12.965Z,84.90
2022-08-19T02:21:15.055Z,84.60
2022-08-19T02:22:14.484Z,84.70
2022-08-19T02:23:17.896Z,85.50
2022-08-19T02:24:14.467Z,85.70
2022-08-19T02:25:15.767Z,86.10
2022-08-19T02:26:16.086Z,85.90
2022-08-19T02:27:13.423Z,85.50
2022-08-19T02:28:16.756Z,85.00
2022-08-19T02:29:13.990Z,84.80
2022-08-19T02:30:15.632Z,84.40
2022-08-19T02:31:13.905Z,84.00
2022-08-19T02:32:14.316Z,83.30
2022-08-19T02:33:13.154Z,83.50
2022-08-19T02:34:13.172Z,83.60
2022-08-19T02:35:16.143Z,83.70
2022-08-19T02:36:15.529Z,83.90
2022-08-19T02:37:13.693Z,83.70
2022-08-19T02:38:14.076Z,84.00
2022-08-19T02:39:14.242Z,84.00
2022-08-19T02:40:14.710Z,84.20
2022-08-19T02:41:13.622Z,84.30
2022-08-19T02:42:14.942Z,84.40
2022-08-19T02:43:14.709Z,84.50
2022-08-19T02:44:26.557Z,84.60
2022-08-19T02:45:16.426Z,85.00
2022-08-19T02:46:15.230Z,85.20
2022-08-19T02:47:13.434Z,85.60
2022-08-19T02:48:21.618Z,85.80
2022-08-19T02:49:15.178Z,85.80
2022-08-19T02:50:13.057Z,85.80
2022-08-19T02:51:15.016Z,85.90
2022-08-19T02:52:15.872Z,86.10
2022-08-19T02:53:15.608Z,86.20
2022-08-19T02:54:13.611Z,86.50
2022-08-19T02:55:16.482Z,86.30
2022-08-19T02:56:13.343Z,86.80
2022-08-19T02:57:15.740Z,87.40
2022-08-19T02:58:13.587Z,88.20
2022-08-19T02:59:13.492Z,88.40
2022-08-19T03:00:14.404Z,88.30
2022-08-19T03:01:16.651Z,88.30
2022-08-19T03:02:13.542Z,88.60
2022-08-19T03:03:13.702Z,88.10
2022-08-19T03:04:15.308Z,88.00
2022-08-19T03:05:15.343Z,87.90
2022-08-19T03:06:13.192Z,87.70
2022-08-19T03:07:15.065Z,87.40
2022-08-19T03:08:13.045Z,87.20
2022-08-19T03:09:14.605Z,87.00
2022-08-19T03:10:13.465Z,86.70
2022-08-19T03:11:14.873Z,86.10
2022-08-19T03:12:13.685Z,86.00
2022-08-19T03:13:13.865Z,86.50
2022-08-19T03:14:13.642Z,87.00
2022-08-19T03:15:13.561Z,86.80
2022-08-19T03:16:13.348Z,86.40
2022-08-19T03:17:14.748Z,87.20
2022-08-19T03:18:17.905Z,87.50
2022-08-19T03:19:13.469Z,87.70
2022-08-19T03:20:14.664Z,88.00
2022-08-19T03:21:13.697Z,88.40
2022-08-19T03:22:14.220Z,88.20
2022-08-19T03:23:13.430Z,88.10
2022-08-19T03:24:15.315Z,87.90
2022-08-19T03:25:13.195Z,88.00
2022-08-19T03:26:18.257Z,88.10
2022-08-19T03:27:13.463Z,88.20
2022-08-19T03:28:13.376Z,88.40
2022-08-19T03:29:13.463Z,88.20
2022-08-19T03:30:13.412Z,88.20
2022-08-19T03:31:45.252Z,88.50
2022-08-19T03:32:31.691Z,88.50
2022-08-19T03:33:18.210Z,88.40
2022-08-19T03:34:16.924Z,88.40
2022-08-19T03:35:14.738Z,88.10
2022-08-19T03:36:18.459Z,87.60
2022-08-19T03:37:13.361Z,87.30
2022-08-19T03:38:15.726Z,86.80
2022-08-19T03:39:13.735Z,86.40
2022-08-19T03:40:16.494Z,86.10
2022-08-19T03:41:16.811Z,85.80
2022-08-19T03:42:31.994Z,85.90
2022-08-19T03:43:15.145Z,85.90
2022-08-19T03:44:17.677Z,85.60
2022-08-19T03:45:15.199Z,85.70
2022-08-19T03:46:14.317Z,86.00
2022-08-19T03:47:15.445Z,86.20
2022-08-19T03:48:13.354Z,86.40
2022-08-19T03:49:15.233Z,86.30
2022-08-19T03:50:14.449Z,86.60
2022-08-19T03:51:16.035Z,87.00
2022-08-19T03:52:12.941Z,87.20
2022-08-19T03:53:14.562Z,87.60
2022-08-19T03:54:16.349Z,87.60
2022-08-19T03:55:16.155Z,88.20
2022-08-19T03:56:14.577Z,88.10
2022-08-19T03:57:37.404Z,88.20
2022-08-19T03:58:15.571Z,88.40
2022-08-19T03:59:16.670Z,88.40
2022-08-19T04:00:14.676Z,88.40
2022-08-19T04:01:13.577Z,88.40
2022-08-19T04:02:16.547Z,89.10
2022-08-19T04:03:16.426Z,89.00
2022-08-19T04:04:13.473Z,89.60
2022-08-19T04:05:15.440Z,89.70
2022-08-19T04:06:15.198Z,89.80
2022-08-19T04:07:14.749Z,89.90
2022-08-19T04:08:15.265Z,89.80
2022-08-19T04:09:14.791Z,89.80
2022-08-19T04:10:13.975Z,89.70
2022-08-19T04:11:14.854Z,89.30
2022-08-19T04:12:14.701Z,89.10
2022-08-19T04:13:13.833Z,88.90
2022-08-19T04:14:13.743Z,88.80
2022-08-19T04:15:16.033Z,88.20
2022-08-19T04:16:13.205Z,88.10
2022-08-19T04:17:16.075Z,88.00
2022-08-19T04:18:14.598Z,88.10
2022-08-19T04:19:16.552Z,88.20
2022-08-19T04:20:13.476Z,88.30
2022-08-19T04:21:13.633Z,87.70
2022-08-19T04:22:15.195Z,87.30
2022-08-19T04:23:14.675Z,87.10
2022-08-19T04:24:13.632Z,87.00
2022-08-19T04:25:13.977Z,87.00
2022-08-19T04:26:14.913Z,87.70
2022-08-19T04:27:14.484Z,88.00
2022-08-19T04:28:14.828Z,88.20
2022-08-19T04:29:14.004Z,88.40
2022-08-19T04:30:16.088Z,88.40
2022-08-19T04:31:16.381Z,89.10
2022-08-19T04:32:16.273Z,89.20
2022-08-19T04:33:14.658Z,88.90
2022-08-19T04:34:15.273Z,88.50
2022-08-19T04:35:17.573Z,88.30
2022-08-19T04:36:14.141Z,88.00
2022-08-19T04:37:13.261Z,88.00
2022-08-19T04:38:13.393Z,88.10
2022-08-19T04:39:13.164Z,88.20
2022-08-19T04:40:14.327Z,88.20
2022-08-19T04:41:13.739Z,88.00
2022-08-19T04:42:13.644Z,88.20
2022-08-19T04:43:18.785Z,88.20
2022-08-19T04:44:15.131Z,87.90
2022-08-19T04:45:13.274Z,87.70
2022-08-19T04:46:23.498Z,87.90
2022-08-19T04:48:27.206Z,88.00
2022-08-19T04:49:14.052Z,87.90
2022-08-19T04:50:16.415Z,88.00
2022-08-19T04:51:16.211Z,88.50
2022-08-19T04:52:13.143Z,88.60
2022-08-19T04:53:13.013Z,88.60
2022-08-19T04:54:13.067Z,88.90
2022-08-19T04:55:12.938Z,88.70
2022-08-19T04:56:14.586Z,88.40
2022-08-19T04:57:16.506Z,88.40
2022-08-19T04:58:14.948Z,88.50
2022-08-19T04:59:15.034Z,88.00
2022-08-19T05:00:13.107Z,87.70
2022-08-19T05:01:13.060Z,87.50
2022-08-19T05:02:13.178Z,87.70
2022-08-19T05:03:14.754Z,87.40
2022-08-19T05:04:13.793Z,87.00
2022-08-19T05:05:13.704Z,87.30
2022-08-19T05:06:13.979Z,87.50
2022-08-19T05:07:13.065Z,87.60
2022-08-19T05:08:15.375Z,87.60
2022-08-19T05:09:13.375Z,87.40
2022-08-19T05:10:14.946Z,87.40
2022-08-19T05:11:17.764Z,87.30
2022-08-19T05:12:15.715Z,86.80
2022-08-19T05:13:15.255Z,86.70
2022-08-19T05:14:16.007Z,86.40
2022-08-19T05:15:12.870Z,86.10
2022-08-19T05:16:15.650Z,86.20
2022-08-19T05:17:26.568Z,86.60
2022-08-19T05:18:13.896Z,86.10
2022-08-19T05:19:12.871Z,85.70
2022-08-19T05:20:15.589Z,85.80
2022-08-19T05:21:13.658Z,86.00
2022-08-19T05:22:13.440Z,85.70
2022-08-19T05:23:22.050Z,85.20
2022-08-19T05:24:12.881Z,85.10
2022-08-19T05:25:14.218Z,84.80
2022-08-19T05:26:15.075Z,85.30
2022-08-19T05:27:14.263Z,85.50
2022-08-19T05:28:13.652Z,85.00
2022-08-19T05:29:13.528Z,84.50
2022-08-19T05:30:18.014Z,84.20
2022-08-19T05:31:15.119Z,84.30
2022-08-19T05:32:13.105Z,84.20
2022-08-19T05:33:16.191Z,84.10
2022-08-19T05:34:20.162Z,84.10
2022-08-19T05:35:15.266Z,83.90
2022-08-19T05:36:14.805Z,83.90
2022-08-19T05:37:17.335Z,84.00
2022-08-19T05:38:15.153Z,83.80
2022-08-19T05:39:14.789Z,83.40
2022-08-19T05:40:14.429Z,83.10
2022-08-19T05:41:17.902Z,82.80
2022-08-19T05:42:17.118Z,82.70
2022-08-19T05:43:13.109Z,82.60
2022-08-19T05:44:13.023Z,82.50
2022-08-19T05:45:14.466Z,83.00
2022-08-19T05:46:13.657Z,82.80
2022-08-19T05:47:15.005Z,82.50
2022-08-19T05:48:14.484Z,81.90
2022-08-19T05:49:13.358Z,81.80
2022-08-19T05:50:15.761Z,81.40
2022-08-19T05:51:15.286Z,81.10
2022-08-19T05:52:15.723Z,81.80
2022-08-19T05:53:15.100Z,81.70
2022-08-19T05:54:13.896Z,81.80
2022-08-19T05:55:12.771Z,81.90
2022-08-19T05:56:13.871Z,81.20
2022-08-19T05:57:16.373Z,81.30
2022-08-19T05:58:13.490Z,80.80
2022-08-19T05:59:13.640Z,80.50
2022-08-19T06:00:21.460Z,80.20
2022-08-19T06:01:13.649Z,80.60
2022-08-19T06:02:15.061Z,80.70
2022-08-19T06:03:14.006Z,79.90
2022-08-19T06:04:13.197Z,79.60
2022-08-19T06:05:14.749Z,79.40
2022-08-19T06:06:13.780Z,79.50
2022-08-19T06:07:16.244Z,79.00
2022-08-19T06:08:13.153Z,79.30
2022-08-19T06:09:15.952Z,79.50
2022-08-19T06:10:14.630Z,80.20
2022-08-19T06:11:15.350Z,79.30
2022-08-19T06:12:16.981Z,78.90
2022-08-19T06:13:16.227Z,78.70
2022-08-19T06:14:16.900Z,78.60
2022-08-19T06:15:12.819Z,77.90
2022-08-19T06:16:13.765Z,78.50
2022-08-19T06:17:18.188Z,78.00
2022-08-19T06:18:15.853Z,77.40
2022-08-19T06:19:15.749Z,77.70
2022-08-19T06:20:13.666Z,77.30
2022-08-19T06:21:13.686Z,77.00
2022-08-19T06:22:13.849Z,76.50
2022-08-19T06:23:13.171Z,76.30
2022-08-19T06:24:14.771Z,76.30
2022-08-19T06:25:16.568Z,75.70
2022-08-19T06:26:15.103Z,75.20
2022-08-19T06:27:16.217Z,75.20
2022-08-19T06:28:14.981Z,75.20
2022-08-19T06:29:23.681Z,74.70
2022-08-19T06:30:15.487Z,74.60
2022-08-19T06:31:16.777Z,74.10
2022-08-19T06:32:13.820Z,74.10
2022-08-19T06:33:15.646Z,73.90
2022-08-19T06:34:18.263Z,74.40
2022-08-19T06:35:16.007Z,73.90
2022-08-19T06:36:13.664Z,73.80
2022-08-19T06:37:18.271Z,74.20
2022-08-19T06:38:14.990Z,73.90
2022-08-19T06:39:14.942Z,74.00
2022-08-19T06:40:14.586Z,73.90
2022-08-19T06:41:18.022Z,74.40
2022-08-19T06:42:14.664Z,74.00
2022-08-19T06:43:15.504Z,74.50
2022-08-19T06:44:17.015Z,74.00
2022-08-19T06:45:13.971Z,73.60
2022-08-19T06:46:13.002Z,73.40
2022-08-19T06:47:23.885Z,72.80
2022-08-19T06:48:13.445Z,72.80
2022-08-19T06:49:15.071Z,73.00
2022-08-19T06:50:14.667Z,73.30
2022-08-19T06:51:15.299Z,73.70
2022-08-19T06:52:15.301Z,73.10
2022-08-19T06:53:13.239Z,73.40
2022-08-19T06:54:19.267Z,73.80
2022-08-19T06:55:16.940Z,73.40
2022-08-19T06:56:15.390Z,73.60
2022-08-19T06:57:16.743Z,73.80
2022-08-19T06:58:16.030Z,73.40
2022-08-19T06:59:14.374Z,73.90
2022-08-19T07:00:16.404Z,73.70
2022-08-19T07:01:18.848Z,74.20
2022-08-19T07:02:19.452Z,73.70
2022-08-19T07:03:16.368Z,74.40
2022-08-19T07:04:15.721Z,73.20
2022-08-19T07:05:16.783Z,72.80
2022-08-19T07:06:39.422Z,72.80
2022-08-19T07:07:21.146Z,72.50
2022-08-19T07:08:15.011Z,72.70
2022-08-19T07:09:18.340Z,72.10
2022-08-19T07:10:18.306Z,72.00
2022-08-19T07:11:14.840Z,72.50
2022-08-19T07:12:19.391Z,72.10
2022-08-19T07:13:17.599Z,72.70
2022-08-19T07:14:19.153Z,73.20
2022-08-19T07:15:19.337Z,72.80
2022-08-19T07:16:18.054Z,72.90
2022-08-19T07:17:17.471Z,72.00
2022-08-19T07:18:16.624Z,71.90
2022-08-19T07:19:18.927Z,71.40
2022-08-19T07:20:17.473Z,71.20
2022-08-19T07:21:17.190Z,71.60
2022-08-19T07:22:14.864Z,71.70
2022-08-19T07:23:17.783Z,71.30
2022-08-19T07:24:16.472Z,71.40
2022-08-19T07:25:16.953Z,71.30
2022-08-19T07:26:16.891Z,71.30
2022-08-19T07:27:16.002Z,71.10
2022-08-19T07:28:24.719Z,71.70
2022-08-19T07:29:19.545Z,70.60
2022-08-19T07:30:16.515Z,70.10
2022-08-19T07:31:16.427Z,69.40
2022-08-19T07:32:16.521Z,70.70
2022-08-19T07:33:18.120Z,70.30
2022-08-19T07:34:16.041Z,70.30
2022-08-19T07:35:16.118Z,70.80
2022-08-19T07:36:16.478Z,71.20
2022-08-19T07:37:14.942Z,69.90
2022-08-19T07:38:13.487Z,70.30
2022-08-19T07:39:17.324Z,70.40
2022-08-19T07:40:16.520Z,70.70
2022-08-19T07:41:13.669Z,70.50
2022-08-19T07:42:16.286Z,70.10
2022-08-19T07:43:17.033Z,69.50
2022-08-19T07:44:13.140Z,69.50
2022-08-19T07:45:18.408Z,69.40
2022-08-19T07:46:14.009Z,70.10
2022-08-19T07:47:47.521Z,70.30
2022-08-19T07:48:14.597Z,69.70
2022-08-19T07:49:14.860Z,70.10
2022-08-19T07:50:14.709Z,70.60
2022-08-19T07:51:36.442Z,70.10
2022-08-19T07:52:16.970Z,70.00
2022-08-19T07:53:17.103Z,69.80
2022-08-19T07:54:16.992Z,71.40
2022-08-19T07:55:42.204Z,70.60
2022-08-19T07:56:17.659Z,69.70
2022-08-19T07:57:18.055Z,69.50
2022-08-19T07:58:42.033Z,69.40
2022-08-19T07:59:22.829Z,70.40
2022-08-19T08:00:14.684Z,69.90
2022-08-19T08:01:16.774Z,69.50
2022-08-19T08:02:15.540Z,70.20
2022-08-19T08:03:16.640Z,70.70
2022-08-19T08:04:15.451Z,70.40
2022-08-19T08:05:17.574Z,69.80
2022-08-19T08:06:16.299Z,68.70
2022-08-19T08:07:14.967Z,68.70
2022-08-19T08:08:12.824Z,67.70
2022-08-19T08:09:16.514Z,69.10
2022-08-19T08:10:20.502Z,69.60
2022-08-19T08:11:16.721Z,69.00
2022-08-19T08:12:33.779Z,68.20
2022-08-19T08:13:17.451Z,68.00
2022-08-19T08:14:28.965Z,67.60
2022-08-19T08:15:16.677Z,66.80
2022-08-19T08:16:19.717Z,67.00
2022-08-19T08:17:15.179Z,67.00
2022-08-19T08:18:17.406Z,66.30
2022-08-19T08:19:20.430Z,65.60
2022-08-19T08:20:16.331Z,64.90
2022-08-19T08:21:17.758Z,65.60
2022-08-19T08:22:18.434Z,65.80
2022-08-19T08:23:17.827Z,64.80
2022-08-19T08:24:16.386Z,64.20
2022-08-19T08:25:15.718Z,65.60
2022-08-19T08:26:19.353Z,65.90
2022-08-19T08:27:15.598Z,64.60
2022-08-19T08:28:17.702Z,64.80
2022-08-19T08:29:18.021Z,64.60
2022-08-19T08:30:17.177Z,65.00
2022-08-19T08:31:17.017Z,64.20
2022-08-19T08:32:15.117Z,64.10
2022-08-19T08:34:17.052Z,63.80
2022-08-19T08:35:17.824Z,64.10
2022-08-19T08:36:17.257Z,63.30
2022-08-19T08:37:17.448Z,63.30
2022-08-19T08:38:16.892Z,63.00
2022-08-19T08:39:16.554Z,62.70
2022-08-19T08:40:13.560Z,63.10
2022-08-19T08:41:16.795Z,63.50
2022-08-19T08:42:17.775Z,63.00
2022-08-19T08:43:15.601Z,63.40
2022-08-19T08:44:20.141Z,62.70
2022-08-19T08:45:13.897Z,62.90
2022-08-19T08:46:30.338Z,63.00
2022-08-19T08:47:18.545Z,63.40
2022-08-19T08:48:24.244Z,63.20
2022-08-19T08:49:17.511Z,62.90
2022-08-19T08:50:18.921Z,62.90
2022-08-19T08:51:20.154Z,63.40
2022-08-19T08:52:17.731Z,63.30
2022-08-19T08:53:17.903Z,62.80
2022-08-19T08:54:17.059Z,62.60
2022-08-19T08:55:16.854Z,63.20
2022-08-19T08:56:18.779Z,63.30
2022-08-19T08:57:16.480Z,64.00
2022-08-19T08:58:16.462Z,64.10
2022-08-19T08:59:14.985Z,63.60
2022-08-19T09:00:17.480Z,63.30
2022-08-19T09:01:16.624Z,63.40
2022-08-19T09:02:17.983Z,62.40
2022-08-19T09:03:17.567Z,61.60
2022-08-19T09:04:16.848Z,61.30
2022-08-19T09:05:16.961Z,62.20
2022-08-19T09:06:16.420Z,61.90
2022-08-19T09:07:22.885Z,62.30
2022-08-19T09:08:13.802Z,61.50
2022-08-19T09:09:17.009Z,61.30
2022-08-19T09:10:15.502Z,61.80
2022-08-19T09:11:42.684Z,61.50
2022-08-19T09:12:18.069Z,60.80
2022-08-19T09:13:18.084Z,59.20
2022-08-19T09:14:35.015Z,59.40
2022-08-19T09:15:15.736Z,59.20
2022-08-19T09:16:21.738Z,57.80
2022-08-19T09:17:15.535Z,57.90
2022-08-19T09:18:19.224Z,56.10
2022-08-19T09:19:15.313Z,55.20
2022-08-19T09:20:16.378Z,54.40
2022-08-19T09:21:17.175Z,54.30
2022-08-19T09:22:25.591Z,54.70
2022-08-19T09:23:16.684Z,54.70
2022-08-19T09:24:18.534Z,55.00
2022-08-19T09:25:18.224Z,54.90
2022-08-19T09:26:17.651Z,53.90
2022-08-19T09:27:18.703Z,52.50
2022-08-19T09:28:22.473Z,52.60
2022-08-19T09:29:15.045Z,51.70
2022-08-19T09:30:18.451Z,50.20
2022-08-19T09:31:16.375Z,50.30
2022-08-19T09:32:26.717Z,50.00
2022-08-19T09:33:19.287Z,52.90
2022-08-19T09:34:21.327Z,54.90
2022-08-19T09:35:17.433Z,52.50
2022-08-19T09:36:21.664Z,52.90
2022-08-19T09:37:18.465Z,54.70
2022-08-19T09:38:18.312Z,55.60
2022-08-19T09:39:16.644Z,53.40
2022-08-19T09:40:16.369Z,51.10
2022-08-19T09:41:15.351Z,48.30
2022-08-19T09:42:20.338Z,47.20
2022-08-19T09:43:29.035Z,46.10
2022-08-19T09:44:16.644Z,46.20
2022-08-19T09:45:17.127Z,47.20
2022-08-19T09:46:18.329Z,46.20
2022-08-19T09:47:17.382Z,46.20
2022-08-19T09:48:19.003Z,48.00
2022-08-19T09:49:17.258Z,49.10
2022-08-19T09:50:19.329Z,50.60
2022-08-19T09:51:17.383Z,51.30
2022-08-19T09:52:18.951Z,50.50
2022-08-19T09:53:16.744Z,51.50
2022-08-19T09:54:23.552Z,53.40
2022-08-19T09:55:18.870Z,54.40
2022-08-19T09:56:19.147Z,52.70
2022-08-19T09:57:17.451Z,52.10
2022-08-19T09:58:17.630Z,52.10
2022-08-19T09:59:15.603Z,53.30
2022-08-19T10:00:17.477Z,53.60
2022-08-19T10:01:17.548Z,53.90
2022-08-19T10:02:22.269Z,52.70
2022-08-19T10:03:18.510Z,50.30
2022-08-19T10:04:20.043Z,50.60
2022-08-19T10:05:23.203Z,50.40
2022-08-19T10:06:17.362Z,49.10
2022-08-19T10:07:18.822Z,47.90
2022-08-19T10:08:19.082Z,50.80
2022-08-19T10:09:17.721Z,51.80
2022-08-19T10:10:17.984Z,52.80
2022-08-19T10:11:28.152Z,53.30
2022-08-19T10:12:20.294Z,53.20
2022-08-19T10:13:17.970Z,52.50
2022-08-19T10:14:19.170Z,51.90
2022-08-19T10:15:19.239Z,51.40
2022-08-19T10:16:15.832Z,51.10
2022-08-19T10:17:22.219Z,48.40
2022-08-19T10:18:16.733Z,47.70
2022-08-19T10:19:16.922Z,47.20
2022-08-19T10:20:17.119Z,45.20
2022-08-19T10:21:18.800Z,45.50
2022-08-19T10:22:18.681Z,45.50
2022-08-19T10:23:17.258Z,43.70
2022-08-19T10:24:18.527Z,42.80
2022-08-19T10:25:19.570Z,40.80
2022-08-19T10:26:18.268Z,44.20
2022-08-19T10:27:18.191Z,45.00
2022-08-19T10:28:19.680Z,45.60
2022-08-19T10:29:32.148Z,47.70
2022-08-19T15:30:49.353Z,35.20
2022-08-19T15:31:01.300Z,35.00
2022-08-19T15:31:25.278Z,35.30
2022-08-19T15:32:17.253Z,34.90
2022-08-19T15:33:19.003Z,34.10
2022-08-19T15:34:18.550Z,34.50
2022-08-19T15:35:19.179Z,35.10
2022-08-19T15:36:17.674Z,35.50
2022-08-19T15:37:18.168Z,35.90
2022-08-19T15:38:18.034Z,36.00
2022-08-19T15:39:19.393Z,36.40
2022-08-19T15:40:19.451Z,36.30
2022-08-19T15:41:20.039Z,36.10
2022-08-19T15:42:29.427Z,36.40
2022-08-19T15:43:19.331Z,36.50
2022-08-19T15:44:17.607Z,37.10
2022-08-19T15:45:17.796Z,37.20
2022-08-19T15:46:21.131Z,37.20
2022-08-19T15:47:20.284Z,36.70
2022-08-19T15:48:18.212Z,36.30
2022-08-19T15:49:18.571Z,36.00
2022-08-19T15:50:19.648Z,35.70
2022-08-19T15:51:19.892Z,35.80
2022-08-19T15:52:19.570Z,36.20
2022-08-19T15:53:18.598Z,37.50
2022-08-19T15:54:20.408Z,37.20
2022-08-19T15:55:27.678Z,37.50
2022-08-19T15:56:23.570Z,36.90
2022-08-19T15:57:19.897Z,38.00
2022-08-19T15:58:28.534Z,37.00
2022-08-19T15:59:20.938Z,37.70
2022-08-19T16:00:21.066Z,37.20
2022-08-19T16:01:20.767Z,37.40
2022-08-19T16:02:19.493Z,37.10
2022-08-19T16:03:18.932Z,37.20
2022-08-19T16:04:19.781Z,36.90
2022-08-19T16:05:18.405Z,36.80
2022-08-19T16:06:19.621Z,37.20
2022-08-19T16:07:23.317Z,36.80
2022-08-19T16:08:18.587Z,36.70
2022-08-19T16:09:26.481Z,36.50
2022-08-19T16:10:27.199Z,36.10
2022-08-19T16:11:20.054Z,35.80
2022-08-19T16:12:19.608Z,35.30
2022-08-19T16:13:19.759Z,36.10
2022-08-19T16:14:20.095Z,36.00
2022-08-19T16:15:21.204Z,36.70
2022-08-19T16:16:18.739Z,35.80
2022-08-19T16:17:20.798Z,37.00
2022-08-19T16:18:21.079Z,37.50
2022-08-19T16:19:20.416Z,37.90
2022-08-19T16:20:20.645Z,37.90
2022-08-19T16:21:19.598Z,37.50
2022-08-19T16:22:19.231Z,37.10
2022-08-19T16:23:18.981Z,36.70
2022-08-19T16:24:19.444Z,37.20
2022-08-19T16:25:20.784Z,37.10
2022-08-19T16:26:19.198Z,37.00
2022-08-19T16:27:20.765Z,36.80
2022-08-19T16:28:19.881Z,36.80
2022-08-19T16:29:22.033Z,36.90
2022-08-19T16:30:19.122Z,37.20
2022-08-19T16:31:20.276Z,38.20
2022-08-19T16:32:19.446Z,36.80
2022-08-19T16:33:23.201Z,37.70
2022-08-19T16:34:19.648Z,37.90
2022-08-19T16:35:19.956Z,38.00
2022-08-19T16:36:20.147Z,38.10
2022-08-19T16:37:21.034Z,37.90
2022-08-19T16:38:17.727Z,37.30
2022-08-19T16:39:19.287Z,37.30
2022-08-19T16:40:19.387Z,37.20
2022-08-19T16:41:19.689Z,37.10
2022-08-19T16:42:18.239Z,38.40
2022-08-19T16:43:20.516Z,38.00
2022-08-19T16:44:19.806Z,37.80
2022-08-19T16:45:20.227Z,37.90
2022-08-19T16:46:19.696Z,37.90
2022-08-19T16:47:21.151Z,38.40
2022-08-19T16:48:18.949Z,38.60
2022-08-19T16:49:22.645Z,39.00
2022-08-19T16:50:25.392Z,39.50
2022-08-19T16:51:21.049Z,39.70
2022-08-19T16:52:19.005Z,40.20
2022-08-19T16:53:25.528Z,39.90
2022-08-19T16:54:19.158Z,39.10
2022-08-19T16:55:19.342Z,39.40
2022-08-19T16:56:20.520Z,38.90
2022-08-19T16:57:20.733Z,39.00
2022-08-19T16:58:21.446Z,39.50
2022-08-19T16:59:20.532Z,39.40
2022-08-19T17:00:20.390Z,38.90
2022-08-19T17:01:18.742Z,39.10
2022-08-19T17:02:20.502Z,38.90
2022-08-19T17:03:19.074Z,38.70
2022-08-19T17:04:19.741Z,38.80
2022-08-19T17:05:19.310Z,39.20
2022-08-19T17:06:20.768Z,39.50
2022-08-19T17:07:18.872Z,39.10
2022-08-19T17:08:18.879Z,39.00
2022-08-19T17:09:25.880Z,39.10
2022-08-19T17:10:19.724Z,40.10
2022-08-19T17:11:19.839Z,39.90
2022-08-19T17:12:18.247Z,40.50
2022-08-19T17:13:18.594Z,40.40
2022-08-19T17:14:20.498Z,40.50
2022-08-19T17:15:44.639Z,40.60
2022-08-19T17:16:19.491Z,40.60
2022-08-19T17:17:19.666Z,40.70
2022-08-19T17:18:19.968Z,40.40
2022-08-19T17:19:20.612Z,41.00
2022-08-19T17:20:19.349Z,40.70
2022-08-19T17:21:19.115Z,40.60
2022-08-19T17:22:19.601Z,40.40
2022-08-19T17:23:17.368Z,40.30
2022-08-19T17:24:19.712Z,40.90
2022-08-19T17:25:20.918Z,40.50
2022-08-19T17:26:18.597Z,40.10
2022-08-19T17:27:19.996Z,40.10
2022-08-19T17:28:17.818Z,40.60
2022-08-19T17:29:17.527Z,40.60
2022-08-19T17:30:19.759Z,40.90
2022-08-19T17:31:18.777Z,41.30
2022-08-19T17:32:24.866Z,41.20
2022-08-19T17:33:20.738Z,40.70
2022-08-19T17:34:19.475Z,41.00
2022-08-19T17:35:19.180Z,41.10
2022-08-19T17:36:19.793Z,41.30
2022-08-19T17:37:19.904Z,41.30
2022-08-19T17:38:18.907Z,41.30
2022-08-19T17:39:20.017Z,41.50
2022-08-19T17:40:23.814Z,42.00
2022-08-19T17:41:17.750Z,42.20
2022-08-19T17:42:17.876Z,42.50
2022-08-19T17:43:32.368Z,42.50
2022-08-19T17:44:17.353Z,42.00
2022-08-19T17:45:17.912Z,42.20
2022-08-19T17:46:18.778Z,42.10
2022-08-19T17:47:19.079Z,42.60
2022-08-19T17:48:17.677Z,42.70
2022-08-19T17:49:18.714Z,42.90
2022-08-19T17:50:18.222Z,42.90
2022-08-19T17:51:16.808Z,42.60
2022-08-19T17:52:19.724Z,42.80
2022-08-19T17:53:18.216Z,42.90